CDT,Max TemperatureF,Mean TemperatureF,Min TemperatureF,Max Dew PointF,MeanDew PointF,Min DewpointF,Max Humidity, Mean Humidity, Min Humidity, Max Sea Level PressureIn, Mean Sea Level PressureIn, Min Sea Level PressureIn, Max VisibilityMiles, Mean VisibilityMiles, Min VisibilityMiles, Max Wind SpeedMPH, Mean Wind SpeedMPH, Max Gust SpeedMPH,PrecipitationIn, CloudCover, Events, WindDirDegrees
2013-6-1,96,80,66,62,48,38,79,36,15,29.89,29.75,29.60,10,10,10,24,10,30,0.00,0,,55
2013-6-2,91,80,69,63,50,40,54,35,26,29.98,29.88,29.74,10,10,10,22,12,28,0.00,3,,116
2013-6-3,99,84,69,59,53,48,63,38,18,29.86,29.75,29.63,10,10,10,20,12,31,0.00,0,,143
2013-6-4,108,90,73,60,42,17,55,26,4,29.70,29.65,29.57,10,10,10,17,11,25,0.00,0,,188
2013-6-5,105,86,68,52,42,30,45,25,8,29.91,29.67,29.57,10,10,10,34,8,52,0.00,1,,99
2013-6-6,91,77,64,59,56,51,78,50,30,29.91,29.83,29.73,10,10,10,31,16,46,0.00,2,,60
2013-6-7,89,76,63,62,57,52,87,55,31,30.06,29.87,29.74,10,10,10,17,9,28,0.07,1,Thunderstorm,121
2013-6-8,99,82,66,61,56,46,76,47,17,29.83,29.69,29.55,10,10,10,21,11,34,0.00,0,,135
2013-6-9,98,86,73,64,57,44,71,42,16,29.85,29.74,29.60,10,10,10,24,15,40,0.00,0,,123
2013-6-10,100,85,71,65,53,41,73,39,14,29.88,29.82,29.76,10,10,10,18,11,26,0.00,0,,141
2013-6-11,100,84,70,61,54,45,71,39,16,29.87,29.82,29.75,10,10,10,20,12,31,0.00,0,,139
2013-6-12,98,84,69,64,60,54,81,50,23,29.88,29.84,29.78,10,10,10,20,14,26,0.00,0,,133
2013-6-13,95,83,72,66,62,56,78,56,29,30.07,29.90,29.77,10,10,10,25,12,44,0.00,3,,132
2013-6-14,87,78,71,67,65,61,87,71,44,30.02,29.89,29.77,10,10,10,18,9,26,0.00,4,,125
2013-6-15,96,82,68,66,62,54,88,63,25,30.04,29.88,29.75,10,10,10,18,7,25,0.00,2,,116
2013-6-16,100,85,70,70,64,57,93,59,24,29.96,29.84,29.76,10,10,10,25,11,34,0.29,1,Rain-Thunderstorm,127
2013-6-17,98,84,70,72,65,55,94,64,26,29.99,29.83,29.72,10,10,10,40,10,54,0.19,2,Rain-Thunderstorm,134
2013-6-18,93,78,64,64,61,57,90,59,31,30.00,29.89,29.78,10,10,10,14,7,,0.00,1,,106
2013-6-19,100,86,73,68,62,54,84,50,24,29.92,29.78,29.68,10,10,10,24,14,37,0.00,1,Rain-Thunderstorm,148
2013-6-20,102,86,71,65,59,48,81,46,17,30.10,29.84,29.70,10,10,10,25,16,36,0.00,1,Rain-Thunderstorm,170
2013-6-21,100,86,73,66,63,56,79,52,23,30.06,29.83,29.70,10,10,10,24,12,36,0.00,1,Rain-Thunderstorm,156
2013-6-22,102,88,73,61,57,47,55,40,16,29.81,29.75,29.65,10,10,10,26,14,38,0.00,0,,149
2013-6-23,105,90,75,60,54,44,45,35,14,29.76,29.70,29.61,10,10,10,25,14,33,0.00,0,,149
2013-6-24,100,88,75,64,60,55,69,44,23,29.80,29.74,29.67,10,10,10,24,17,32,0.00,0,,148
2013-6-25,107,91,75,64,56,40,60,36,11,29.82,29.74,29.64,10,10,10,25,14,31,0.00,0,Thunderstorm,163
2013-6-26,109,92,75,65,52,30,67,34,7,29.78,29.73,29.67,10,10,10,22,12,30,0.00,0,,170
2013-6-27,108,92,77,63,54,40,60,34,10,29.87,29.80,29.76,10,10,10,20,14,26,0.00,0,,142
2013-6-28,105,88,71,57,49,44,51,29,13,29.95,29.88,29.78,10,10,10,14,8,20,0.00,0,,100
2013-6-29,102,88,75,59,51,43,43,28,14,29.97,29.84,29.71,10,10,10,17,5,29,0.00,2,Rain-Thunderstorm,123
2013-6-30,97,86,75,58,54,51,55,36,22,29.92,29.84,29.76,10,10,10,24,11,36,0.00,1,,77